Time;durP1;ratioP1;P1;durP2;ratioP2;P2;SDS_P1;SDS_P2;PMS_P1;PMS_P2;Temp;Humidity;BMP_temperature;BMP_pressure;BME280_temperature;BME280_humidity;BME280_pressure;Samples;Min_cycle;Max_cycle;Signal;HPM_P1;HPM_P2
2023/03/31 00:00:26;;;;;;;9.10;2.40;;;10.90;99.90;;;;;;5074955;28;20036;-64
2023/03/31 00:02:53;;;;;;;9.18;1.45;;;11.00;99.90;;;;;;5074985;28;20472;-64
2023/03/31 00:05:20;;;;;;;7.32;1.38;;;11.00;99.90;;;;;;5056689;28;20060;-67
2023/03/31 00:07:47;;;;;;;11.90;1.85;;;11.00;99.90;;;;;;5074845;28;20052;-63
2023/03/31 00:10:14;;;;;;;9.02;1.42;;;11.30;99.90;;;;;;5056517;28;20059;-63
2023/03/31 00:12:40;;;;;;;2.20;1.23;;;11.10;99.90;;;;;;5074540;28;20056;-63
2023/03/31 00:15:06;;;;;;;7.15;1.63;;;11.10;99.20;;;;;;5074363;28;20032;-63
2023/03/31 00:17:34;;;;;;;10.52;2.25;;;11.10;98.70;;;;;;5074663;28;20044;-64
2023/03/31 00:20:02;;;;;;;7.47;2.10;;;11.10;99.30;;;;;;5074425;28;20045;-63
2023/03/31 00:22:28;;;;;;;12.75;1.40;;;11.10;98.10;;;;;;5074608;28;20040;-63
2023/03/31 00:24:54;;;;;;;7.28;1.45;;;11.10;98.50;;;;;;5056319;28;20075;-63
2023/03/31 00:27:19;;;;;;;5.38;1.38;;;11.00;98.50;;;;;;5056280;28;20036;-63
2023/03/31 00:29:46;;;;;;;3.53;1.55;;;10.90;97.70;;;;;;5074473;28;20043;-63
2023/03/31 00:32:13;;;;;;;10.80;1.88;;;11.00;98.60;;;;;;5074346;28;20495;-65
2023/03/31 00:34:39;;;;;;;4.47;1.45;;;10.90;98.20;;;;;;5056404;28;20044;-63
2023/03/31 00:37:08;;;;;;;5.05;1.35;;;10.90;99.50;;;;;;5074233;28;20076;-63
2023/03/31 00:39:35;;;;;;;9.80;1.42;;;10.90;99.60;;;;;;5073932;28;20594;-63
2023/03/31 00:42:02;;;;;;;8.15;1.55;;;10.80;99.70;;;;;;5074175;28;20051;-63
2023/03/31 00:44:29;;;;;;;12.38;1.88;;;10.70;99.90;;;;;;5073483;28;20400;-63
2023/03/31 00:47:12;;;;;;;11.00;1.52;;;10.70;99.90;;;;;;5074082;28;20111;-63
2023/03/31 00:49:39;;;;;;;7.05;1.70;;;10.70;99.90;;;;;;5074011;28;20056;-63
2023/03/31 00:52:27;;;;;;;2.92;1.38;;;10.60;99.90;;;;;;5056139;28;20036;-63
2023/03/31 00:54:57;;;;;;;8.57;1.67;;;10.60;99.90;;;;;;5073072;28;20147;-63
2023/03/31 00:57:24;;;;;;;8.07;1.70;;;10.50;99.90;;;;;;5073562;28;20072;-63
2023/03/31 00:59:55;;;;;;;6.93;2.22;;;10.50;99.90;;;;;;5073506;28;20036;-63
2023/03/31 01:02:24;;;;;;;2.78;1.25;;;10.40;99.90;;;;;;5073560;28;20090;-63
2023/03/31 01:04:58;;;;;;;6.30;1.60;;;10.40;99.90;;;;;;5055612;28;20056;-63
2023/03/31 01:07:36;;;;;;;6.03;1.52;;;10.30;99.90;;;;;;5073502;28;20036;-63
2023/03/31 01:10:04;;;;;;;4.45;1.02;;;10.20;99.90;;;;;;5073662;28;20040;-63
2023/03/31 01:12:33;;;;;;;7.47;1.00;;;10.20;99.90;;;;;;5073614;28;20037;-63
2023/03/31 01:15:00;;;;;;;6.05;1.25;;;10.60;99.90;;;;;;5073562;28;20127;-63
2023/03/31 01:17:28;;;;;;;10.35;1.75;;;10.10;99.90;;;;;;5073594;28;20072;-64
2023/03/31 01:19:57;;;;;;;6.00;1.10;;;10.40;99.90;;;;;;5073013;28;20045;-67
2023/03/31 01:22:53;;;;;;;3.35;1.10;;;10.00;99.90;;;;;;5073448;28;20094;-63
2023/03/31 01:25:50;;;;;;;8.05;1.27;;;10.00;99.90;;;;;;5073427;28;20086;-63
2023/03/31 01:28:30;;;;;;;4.15;2.03;;;10.00;99.90;;;;;;5073357;28;20041;-63
2023/03/31 01:31:11;;;;;;;12.05;1.67;;;10.30;99.90;;;;;;5073292;28;20089;-63
2023/03/31 01:34:14;;;;;;;3.10;1.05;;;9.90;99.90;;;;;;5072993;28;20091;-63
2023/03/31 01:36:59;;;;;;;4.05;1.65;;;9.90;99.90;;;;;;5073292;28;20048;-63
2023/03/31 01:39:58;;;;;;;2.47;0.85;;;9.90;99.90;;;;;;5073216;28;20388;-63
2023/03/31 01:42:29;;;;;;;5.05;1.45;;;9.80;99.90;;;;;;5055227;28;20044;-63
2023/03/31 01:45:15;;;;;;;6.53;0.90;;;9.80;99.90;;;;;;5054900;28;20048;-63
2023/03/31 01:47:50;;;;;;;3.85;1.42;;;9.70;99.90;;;;;;5055224;28;20131;-63
2023/03/31 01:50:24;;;;;;;8.05;1.38;;;9.70;99.90;;;;;;5073118;28;20123;-63
2023/03/31 01:53:23;;;;;;;6.75;1.15;;;9.60;99.90;;;;;;5038793;28;20037;-63
2023/03/31 01:56:22;;;;;;;7.35;1.13;;;9.70;99.90;;;;;;5055094;28;20111;-63
2023/03/31 01:58:51;;;;;;;9.27;1.80;;;9.70;99.90;;;;;;5073029;28;20548;-63
2023/03/31 02:01:24;;;;;;;9.68;1.30;;;9.70;99.90;;;;;;5072897;28;20037;-63
2023/03/31 02:04:18;;;;;;;12.88;1.90;;;9.60;99.90;;;;;;5073026;28;20426;-64
2023/03/31 02:06:51;;;;;;;7.55;1.00;;;9.70;99.90;;;;;;5069334;28;20045;-63
2023/03/31 02:09:22;;;;;;;11.05;1.40;;;9.70;99.90;;;;;;5072921;28;20074;-63
2023/03/31 02:11:50;;;;;;;11.15;1.50;;;9.70;99.90;;;;;;5072952;28;20538;-63
2023/03/31 02:14:20;;;;;;;7.07;1.80;;;9.70;99.90;;;;;;5072877;28;20494;-63
2023/03/31 02:16:51;;;;;;;2.72;0.88;;;9.70;99.90;;;;;;5072875;28;20040;-63
2023/03/31 02:19:20;;;;;;;4.18;1.33;;;10.20;99.90;;;;;;5054589;28;20404;-64
2023/03/31 02:21:49;;;;;;;5.85;1.13;;;9.70;99.90;;;;;;5072679;28;20067;-64
2023/03/31 02:24:18;;;;;;;4.50;1.08;;;9.70;99.90;;;;;;5072709;28;20036;-63
2023/03/31 02:27:24;;;;;;;8.90;1.25;;;10.90;99.90;;;;;;5054885;28;20041;-63
2023/03/31 02:29:50;;;;;;;3.45;1.15;;;9.80;99.90;;;;;;5071212;28;20052;-63
2023/03/31 02:32:38;;;;;;;5.85;1.45;;;9.70;99.90;;;;;;5072679;28;20044;-63
2023/03/31 02:35:05;;;;;;;3.80;1.35;;;9.70;99.90;;;;;;5072529;28;20049;-63
2023/03/31 02:37:32;;;;;;;6.35;1.67;;;9.70;99.90;;;;;;5072660;28;20041;-63
2023/03/31 02:40:01;;;;;;;5.13;1.50;;;10.40;99.90;;;;;;5054430;28;20064;-63
2023/03/31 02:42:27;;;;;;;4.05;1.70;;;9.70;99.90;;;;;;5072559;28;20438;-64
2023/03/31 02:44:53;;;;;;;2.38;0.88;;;9.80;99.90;;;;;;5072259;28;20036;-66
2023/03/31 02:47:20;;;;;;;6.43;1.77;;;9.80;99.90;;;;;;5072296;28;20033;-63
2023/03/31 02:49:54;;;;;;;8.77;1.45;;;9.80;99.90;;;;;;5072256;28;20395;-63
2023/03/31 02:52:57;;;;;;;8.15;1.60;;;9.80;99.90;;;;;;5072214;28;20094;-63
2023/03/31 02:55:47;;;;;;;4.90;1.90;;;9.80;99.90;;;;;;5017061;28;20044;-63
2023/03/31 02:58:33;;;;;;;5.93;1.30;;;9.80;99.90;;;;;;5072477;28;20441;-63
2023/03/31 03:01:04;;;;;;;7.15;1.38;;;10.40;99.90;;;;;;5072357;28;20036;-63
2023/03/31 03:03:36;;;;;;;7.63;1.73;;;9.80;99.90;;;;;;5072120;28;20040;-63
2023/03/31 03:06:15;;;;;;;3.42;0.90;;;9.80;99.90;;;;;;5071911;28;20057;-63
2023/03/31 03:08:49;;;;;;;6.95;1.23;;;9.70;99.90;;;;;;5076002;28;20435;-63
2023/03/31 03:11:20;;;;;;;4.32;1.50;;;9.70;99.90;;;;;;5057799;28;20071;-63
2023/03/31 03:13:58;;;;;;;2.08;1.13;;;9.80;99.90;;;;;;5075866;28;20040;-63
2023/03/31 03:16:31;;;;;;;1.90;1.05;;;9.70;99.90;;;;;;5075835;28;20044;-63
2023/03/31 03:19:02;;;;;;;6.15;1.20;;;9.60;99.90;;;;;;5075816;28;20442;-63
2023/03/31 03:21:28;;;;;;;3.88;1.58;;;9.70;99.90;;;;;;5075443;28;20068;-63
2023/03/31 03:23:54;;;;;;;3.28;1.48;;;9.70;99.90;;;;;;5075456;28;20036;-63
2023/03/31 03:26:22;;;;;;;3.30;1.13;;;9.70;99.90;;;;;;5075715;28;20098;-63
2023/03/31 03:28:49;;;;;;;9.52;1.75;;;9.70;99.90;;;;;;5075597;28;20040;-68
2023/03/31 03:31:15;;;;;;;3.58;1.52;;;9.70;99.90;;;;;;5075536;28;20041;-64
2023/03/31 03:33:42;;;;;;;3.72;1.27;;;10.70;99.90;;;;;;5075578;28;20407;-63
2023/03/31 03:36:07;;;;;;;10.95;2.42;;;9.70;99.90;;;;;;5057234;28;20048;-63
2023/03/31 03:38:33;;;;;;;4.38;1.38;;;9.80;99.90;;;;;;5075522;28;20045;-63
2023/03/31 03:40:58;;;;;;;6.43;1.35;;;9.80;99.90;;;;;;5075294;28;20046;-63
2023/03/31 03:43:24;;;;;;;3.55;1.50;;;9.80;99.90;;;;;;5075397;28;20044;-63
2023/03/31 03:45:50;;;;;;;6.82;1.25;;;9.60;99.90;;;;;;5075287;28;20082;-63
2023/03/31 03:48:17;;;;;;;7.13;1.77;;;9.80;99.90;;;;;;5075003;28;20037;-63
2023/03/31 03:50:44;;;;;;;2.60;1.33;;;10.50;99.90;;;;;;5057264;28;20118;-63
2023/03/31 03:53:10;;;;;;;5.05;1.50;;;9.90;99.90;;;;;;5075201;28;20051;-63
2023/03/31 03:55:36;;;;;;;2.65;1.15;;;9.90;99.90;;;;;;5075177;28;20040;-63
2023/03/31 03:58:02;;;;;;;4.55;1.38;;;9.80;99.90;;;;;;5075104;28;20105;-63
2023/03/31 04:00:27;;;;;;;5.43;1.60;;;9.80;99.90;;;;;;5056980;28;20087;-63
2023/03/31 04:02:53;;;;;;;3.72;1.98;;;9.80;99.90;;;;;;5056839;28;20399;-63
2023/03/31 04:05:19;;;;;;;3.65;1.90;;;9.80;99.90;;;;;;5074723;28;20056;-63
2023/03/31 04:07:44;;;;;;;1.38;0.82;;;9.80;99.90;;;;;;5056732;28;20454;-63
2023/03/31 04:10:10;;;;;;;4.47;1.48;;;9.70;99.90;;;;;;5074830;28;20427;-63
2023/03/31 04:12:36;;;;;;;3.22;1.52;;;9.70;99.90;;;;;;5074798;28;20036;-63
2023/03/31 04:15:02;;;;;;;3.60;1.58;;;9.80;99.90;;;;;;5074630;28;20098;-63
2023/03/31 04:17:33;;;;;;;7.45;1.73;;;9.70;99.90;;;;;;5074514;28;20115;-63
2023/03/31 04:20:08;;;;;;;3.33;1.38;;;9.70;99.90;;;;;;5073561;28;20441;-63
2023/03/31 04:22:34;;;;;;;4.68;1.30;;;9.70;99.90;;;;;;5074562;28;20036;-63
2023/03/31 04:25:09;;;;;;;5.25;1.33;;;9.70;99.90;;;;;;5074559;28;20076;-63
2023/03/31 04:27:35;;;;;;;3.70;1.42;;;9.70;99.90;;;;;;5074541;28;20032;-63
2023/03/31 04:30:01;;;;;;;4.13;1.27;;;9.80;99.90;;;;;;5074452;28;20128;-63
2023/03/31 04:32:27;;;;;;;1.88;1.02;;;9.70;99.90;;;;;;5074418;28;20562;-63
2023/03/31 04:35:01;;;;;;;4.60;1.25;;;9.50;99.90;;;;;;5074365;28;20086;-63
2023/03/31 04:37:33;;;;;;;5.80;1.88;;;9.70;99.90;;;;;;5056165;28;20040;-63
2023/03/31 04:40:07;;;;;;;2.70;1.35;;;9.70;99.90;;;;;;5074186;28;20416;-63
2023/03/31 04:42:32;;;;;;;1.63;1.02;;;9.80;99.90;;;;;;5074150;28;20043;-63
2023/03/31 04:44:58;;;;;;;2.17;1.40;;;9.80;99.90;;;;;;5074149;28;20485;-63
2023/03/31 04:47:24;;;;;;;7.13;1.67;;;9.70;99.90;;;;;;5074111;28;20048;-63
2023/03/31 04:49:49;;;;;;;2.90;1.45;;;9.70;99.90;;;;;;5074092;28;20430;-63
2023/03/31 04:52:15;;;;;;;7.18;1.70;;;10.80;99.90;;;;;;5073997;28;20028;-63
2023/03/31 04:54:41;;;;;;;8.98;1.88;;;9.70;99.90;;;;;;5073730;28;20064;-63
2023/03/31 04:57:07;;;;;;;2.83;1.42;;;9.80;99.90;;;;;;5073919;28;20430;-63
2023/03/31 04:59:32;;;;;;;5.55;1.42;;;9.80;99.90;;;;;;5073877;28;20040;-63
2023/03/31 05:01:58;;;;;;;3.42;1.70;;;9.80;99.90;;;;;;5073696;28;20062;-63
2023/03/31 05:04:23;;;;;;;5.40;2.00;;;9.80;99.90;;;;;;5073822;28;20042;-62
2023/03/31 05:06:49;;;;;;;3.65;1.60;;;9.80;99.90;;;;;;5073352;28;20052;-63
2023/03/31 05:09:15;;;;;;;4.07;1.30;;;9.80;99.90;;;;;;5073633;28;20082;-63
2023/03/31 05:11:40;;;;;;;9.30;1.88;;;9.90;99.90;;;;;;5055529;28;20078;-63
2023/03/31 05:14:06;;;;;;;6.07;1.75;;;9.90;99.90;;;;;;5073572;28;20127;-63
2023/03/31 05:16:32;;;;;;;3.50;1.40;;;9.90;99.90;;;;;;5073515;28;20032;-63
2023/03/31 05:18:57;;;;;;;6.00;1.63;;;10.90;99.90;;;;;;5073553;28;20067;-63
2023/03/31 05:21:25;;;;;;;2.72;1.40;;;9.90;99.90;;;;;;5073379;28;20048;-63
2023/03/31 05:23:51;;;;;;;5.15;1.88;;;9.90;99.90;;;;;;5073078;28;20049;-63
2023/03/31 05:26:17;;;;;;;4.97;1.70;;;9.90;99.90;;;;;;5073414;28;20041;-63
2023/03/31 05:28:42;;;;;;;2.50;1.08;;;9.80;99.90;;;;;;5073274;28;20044;-65
2023/03/31 05:31:10;;;;;;;1.42;1.10;;;9.80;99.90;;;;;;5072950;28;20120;-62
2023/03/31 05:33:40;;;;;;;5.00;1.60;;;9.80;99.90;;;;;;5073329;28;20369;-63
2023/03/31 05:36:08;;;;;;;6.45;1.48;;;9.70;99.90;;;;;;5073297;28;20036;-63
2023/03/31 05:38:34;;;;;;;8.02;1.80;;;9.80;99.90;;;;;;5073142;28;20389;-63
2023/03/31 05:41:00;;;;;;;1.73;1.20;;;9.80;99.90;;;;;;5072776;28;20119;-68
2023/03/31 05:43:25;;;;;;;3.38;1.35;;;9.70;99.90;;;;;;5073220;28;20124;-68
2023/03/31 05:45:51;;;;;;;4.15;1.42;;;9.70;99.90;;;;;;5073108;28;20479;-65
2023/03/31 05:48:17;;;;;;;3.50;1.90;;;9.70;99.90;;;;;;5073115;28;20400;-62
2023/03/31 05:50:42;;;;;;;2.67;1.35;;;9.70;99.90;;;;;;5073083;28;20086;-63
2023/03/31 05:53:08;;;;;;;5.07;1.55;;;9.50;99.90;;;;;;5072730;28;20037;-62
2023/03/31 05:55:38;;;;;;;2.58;1.30;;;9.70;99.90;;;;;;5055079;28;20127;-64
2023/03/31 05:58:05;;;;;;;6.18;1.38;;;9.70;99.90;;;;;;5072950;28;20032;-64
2023/03/31 06:00:31;;;;;;;2.17;1.13;;;9.70;99.90;;;;;;5072879;28;20044;-63
2023/03/31 06:02:58;;;;;;;2.78;1.50;;;9.70;99.90;;;;;;5072878;28;20037;-70
2023/03/31 06:05:25;;;;;;;9.80;1.83;;;9.70;99.90;;;;;;5072714;28;20057;-70
2023/03/31 06:07:52;;;;;;;6.68;1.67;;;9.50;99.90;;;;;;5072888;28;20032;-63
2023/03/31 06:10:18;;;;;;;2.65;1.10;;;9.40;99.90;;;;;;5054672;28;20052;-63
2023/03/31 06:12:44;;;;;;;4.30;1.92;;;9.50;99.90;;;;;;5072847;28;20089;-63
2023/03/31 06:15:10;;;;;;;4.05;2.03;;;9.70;99.90;;;;;;5054493;28;20044;-64
2023/03/31 06:17:35;;;;;;;2.88;1.48;;;9.70;99.90;;;;;;5072820;28;20502;-62
2023/03/31 06:20:03;;;;;;;3.80;1.52;;;9.70;99.90;;;;;;5072320;28;20078;-62
2023/03/31 06:22:28;;;;;;;2.42;1.40;;;9.60;99.90;;;;;;5072760;28;20079;-62
2023/03/31 06:24:54;;;;;;;1.35;0.90;;;9.70;99.90;;;;;;5072692;28;20072;-62
2023/03/31 06:27:20;;;;;;;5.05;1.55;;;9.40;99.90;;;;;;5054360;28;20068;-62
2023/03/31 06:29:45;;;;;;;7.40;1.55;;;9.70;99.90;;;;;;5072315;28;20035;-62
2023/03/31 06:32:11;;;;;;;2.92;1.25;;;9.50;99.90;;;;;;5072591;28;20043;-62
2023/03/31 06:34:36;;;;;;;3.10;1.30;;;9.70;99.90;;;;;;5072587;28;20040;-62
2023/03/31 06:37:02;;;;;;;2.83;1.20;;;9.70;99.90;;;;;;5072181;28;20044;-62
2023/03/31 06:39:28;;;;;;;5.13;1.45;;;9.70;99.90;;;;;;5072211;28;20041;-62
2023/03/31 06:41:53;;;;;;;2.75;1.52;;;9.80;99.90;;;;;;5073227;28;20069;-62
2023/03/31 06:44:21;;;;;;;1.58;1.15;;;9.80;99.90;;;;;;5076448;28;20072;-62
2023/03/31 06:46:48;;;;;;;6.25;1.10;;;9.90;99.90;;;;;;5076405;28;20037;-63
2023/03/31 06:49:13;;;;;;;2.78;1.25;;;9.40;99.90;;;;;;5076267;28;20036;-62
2023/03/31 06:51:39;;;;;;;3.22;1.00;;;9.80;99.90;;;;;;5075983;28;20487;-62
2023/03/31 06:54:05;;;;;;;4.63;1.60;;;9.70;99.90;;;;;;5075837;28;20480;-62
2023/03/31 06:56:30;;;;;;;6.30;1.42;;;9.80;99.90;;;;;;5058249;28;20044;-62
2023/03/31 06:58:56;;;;;;;3.28;1.17;;;9.90;99.90;;;;;;5075740;28;20036;-62
2023/03/31 07:01:22;;;;;;;1.40;1.10;;;9.80;99.90;;;;;;5075960;28;20047;-62
2023/03/31 07:03:47;;;;;;;7.05;1.45;;;9.80;99.90;;;;;;5076081;28;20468;-63
2023/03/31 07:06:13;;;;;;;5.85;1.23;;;9.80;99.90;;;;;;5075518;28;20057;-62
2023/03/31 07:08:38;;;;;;;4.72;1.55;;;9.90;99.90;;;;;;5075853;28;20476;-62
2023/03/31 07:11:04;;;;;;;3.10;1.40;;;10.30;99.90;;;;;;5075771;28;20041;-63
2023/03/31 07:13:30;;;;;;;2.92;0.80;;;9.90;99.90;;;;;;5075881;28;20036;-63
2023/03/31 07:15:55;;;;;;;2.75;1.08;;;9.90;99.90;;;;;;5075788;28;20041;-63
2023/03/31 07:18:24;;;;;;;1.48;1.08;;;9.90;99.90;;;;;;5075719;28;20048;-63
2023/03/31 07:20:50;;;;;;;2.92;1.38;;;9.90;99.90;;;;;;5075345;28;20170;-63
2023/03/31 07:23:17;;;;;;;2.50;1.25;;;9.90;99.90;;;;;;5075704;28;20065;-63
2023/03/31 07:25:42;;;;;;;1.60;1.20;;;9.90;99.90;;;;;;5057850;28;20043;-63
2023/03/31 07:28:08;;;;;;;2.83;1.45;;;10.90;99.90;;;;;;5075578;28;20484;-62
2023/03/31 07:30:34;;;;;;;3.13;1.48;;;9.80;99.90;;;;;;5075539;28;20197;-62
2023/03/31 07:33:00;;;;;;;4.15;1.27;;;9.80;99.90;;;;;;5075539;28;20051;-64
2023/03/31 07:35:26;;;;;;;3.67;1.52;;;9.80;99.90;;;;;;5075523;28;20036;-62
2023/03/31 07:37:52;;;;;;;4.70;1.63;;;9.80;99.90;;;;;;5075440;28;20070;-63
2023/03/31 07:40:29;;;;;;;2.58;1.48;;;9.90;99.90;;;;;;5075445;28;20051;-62
2023/03/31 07:42:54;;;;;;;2.53;1.23;;;9.90;99.90;;;;;;5075771;28;20036;-62
2023/03/31 07:45:22;;;;;;;2.10;1.17;;;9.90;99.90;;;;;;5075095;28;20036;-63
2023/03/31 07:47:48;;;;;;;2.03;1.00;;;9.90;99.90;;;;;;5075356;28;20038;-62
2023/03/31 07:50:15;;;;;;;2.58;1.00;;;9.90;99.90;;;;;;5075369;28;20070;-62
2023/03/31 07:52:41;;;;;;;5.20;1.30;;;9.90;99.90;;;;;;5074911;28;20102;-62
2023/03/31 07:55:07;;;;;;;3.72;1.02;;;9.90;99.90;;;;;;5074936;28;20484;-62
2023/03/31 07:57:34;;;;;;;2.42;1.23;;;9.90;99.90;;;;;;5075260;28;20392;-62
2023/03/31 08:00:00;;;;;;;1.50;0.90;;;10.00;99.90;;;;;;5075113;28;20438;-62
2023/03/31 08:02:26;;;;;;;2.63;0.98;;;10.00;99.90;;;;;;5075188;28;20033;-62
2023/03/31 08:04:52;;;;;;;1.65;0.95;;;10.00;99.90;;;;;;5074617;28;20064;-62
2023/03/31 08:07:17;;;;;;;1.77;1.02;;;10.00;99.90;;;;;;5074997;28;20071;-63
2023/03/31 08:09:45;;;;;;;2.97;1.17;;;10.10;99.90;;;;;;5074578;28;20526;-62
2023/03/31 08:12:11;;;;;;;3.08;1.13;;;10.10;99.90;;;;;;5074580;28;20040;-63
2023/03/31 08:14:36;;;;;;;2.95;1.65;;;10.10;99.90;;;;;;5074873;28;20040;-63
2023/03/31 08:17:02;;;;;;;4.35;1.27;;;10.10;99.90;;;;;;5056941;28;20032;-62
2023/03/31 08:19:28;;;;;;;3.47;1.23;;;10.10;99.90;;;;;;5074846;28;20044;-62
2023/03/31 08:21:54;;;;;;;2.65;1.27;;;10.10;99.90;;;;;;5074663;28;20119;-62
2023/03/31 08:24:20;;;;;;;2.63;1.30;;;10.10;99.90;;;;;;5056485;28;20048;-62
2023/03/31 08:26:45;;;;;;;3.95;1.88;;;10.10;99.90;;;;;;5074639;28;20039;-62
2023/03/31 08:29:11;;;;;;;3.47;1.70;;;10.10;99.90;;;;;;5074213;28;20480;-62
2023/03/31 08:31:37;;;;;;;2.13;1.20;;;10.10;99.90;;;;;;5074530;28;20051;-63
2023/03/31 08:34:03;;;;;;;3.47;1.60;;;10.20;99.90;;;;;;5074986;28;20538;-63
2023/03/31 08:36:29;;;;;;;2.83;1.02;;;10.20;99.90;;;;;;5074082;28;20075;-63
2023/03/31 08:38:55;;;;;;;3.95;1.48;;;10.20;99.90;;;;;;5056256;28;20040;-63
2023/03/31 08:41:35;;;;;;;3.03;1.83;;;10.30;99.90;;;;;;5074226;28;20105;-63
2023/03/31 08:44:09;;;;;;;1.65;0.90;;;10.30;99.90;;;;;;5056101;28;20075;-63
2023/03/31 08:46:37;;;;;;;2.80;1.17;;;10.30;99.90;;;;;;5073911;28;20036;-63
2023/03/31 08:49:04;;;;;;;11.13;2.90;;;10.30;99.90;;;;;;5074172;28;20029;-63
2023/03/31 08:51:51;;;;;;;4.07;1.20;;;10.30;99.90;;;;;;5074121;28;20048;-63
2023/03/31 08:54:29;;;;;;;2.22;1.38;;;10.40;99.90;;;;;;5073847;28;20123;-63
2023/03/31 08:56:55;;;;;;;5.75;1.38;;;10.40;99.90;;;;;;5074038;28;20033;-63
2023/03/31 08:59:32;;;;;;;5.85;1.65;;;10.60;99.90;;;;;;5073671;28;20127;-63
2023/03/31 09:02:17;;;;;;;1.77;1.17;;;10.50;99.90;;;;;;5073828;28;20036;-63
2023/03/31 09:05:07;;;;;;;4.85;1.50;;;10.50;99.90;;;;;;5073111;28;20094;-63
2023/03/31 09:08:10;;;;;;;5.22;1.60;;;10.50;99.90;;;;;;5073509;28;20050;-63
2023/03/31 09:10:54;;;;;;;4.57;1.92;;;10.60;99.90;;;;;;5073470;28;20041;-63
2023/03/31 09:14:06;;;;;;;2.90;1.50;;;10.50;99.90;;;;;;5073760;28;20537;-63
2023/03/31 09:16:56;;;;;;;4.03;1.60;;;10.50;99.90;;;;;;4972545;28;20069;-62
2023/03/31 09:19:41;;;;;;;2.00;1.20;;;10.60;99.90;;;;;;5024147;28;20092;-63
2023/03/31 09:22:22;;;;;;;4.72;1.40;;;10.60;99.90;;;;;;5073572;28;20461;-63
2023/03/31 09:24:58;;;;;;;6.95;1.60;;;10.60;99.90;;;;;;5073577;28;20115;-63
2023/03/31 09:27:27;;;;;;;4.85;1.52;;;11.50;99.90;;;;;;5055582;28;20480;-63
2023/03/31 09:30:08;;;;;;;2.45;1.40;;;10.60;99.90;;;;;;5073481;28;20116;-63
2023/03/31 09:32:36;;;;;;;;;;;10.60;99.90;;;;;;5073780;28;20119;-63
2023/03/31 09:35:17;;;;;;;2.53;1.20;;;10.80;99.90;;;;;;5073348;28;19920;-63
2023/03/31 09:37:43;;;;;;;3.90;0.98;;;10.70;99.90;;;;;;5073357;28;20446;-63
2023/03/31 09:40:19;;;;;;;2.05;1.48;;;10.80;99.90;;;;;;5073258;28;20040;-63
2023/03/31 09:42:49;;;;;;;4.30;0.90;;;10.80;99.90;;;;;;5073283;28;20032;-63
2023/03/31 09:45:19;;;;;;;3.70;1.30;;;10.90;99.90;;;;;;5073196;28;20036;-63
2023/03/31 09:47:54;;;;;;;2.28;1.23;;;11.70;99.90;;;;;;5073314;28;20045;-63
2023/03/31 09:50:22;;;;;;;4.03;1.38;;;10.90;99.90;;;;;;5073294;28;20067;-63
2023/03/31 09:52:54;;;;;;;3.63;1.23;;;10.90;99.90;;;;;;5073185;28;20036;-63
2023/03/31 09:55:43;;;;;;;3.53;1.00;;;11.00;99.90;;;;;;5073184;28;20094;-63
2023/03/31 09:58:16;;;;;;;4.53;1.40;;;11.00;99.90;;;;;;5073154;28;20041;-63
2023/03/31 10:00:56;;;;;;;2.13;1.10;;;11.10;99.90;;;;;;5072752;28;20051;-63
2023/03/31 10:03:23;;;;;;;2.40;1.20;;;11.10;99.90;;;;;;5073054;28;20055;-63
2023/03/31 10:05:53;;;;;;;1.85;1.10;;;11.10;99.90;;;;;;5072726;28;20504;-63
2023/03/31 10:08:24;;;;;;;1.15;1.00;;;11.70;99.90;;;;;;5072732;28;20067;-63
2023/03/31 10:10:54;;;;;;;0.60;0.52;;;11.00;99.90;;;;;;5073036;28;20457;-63
2023/03/31 10:13:26;;;;;;;1.13;0.70;;;11.20;99.90;;;;;;5073035;28;20106;-63
2023/03/31 10:16:03;;;;;;;2.92;0.77;;;11.60;99.90;;;;;;5072943;28;20399;-63
2023/03/31 10:18:34;;;;;;;1.58;0.90;;;11.10;99.90;;;;;;5076867;28;20036;-63
2023/03/31 10:21:02;;;;;;;2.28;0.70;;;10.80;99.90;;;;;;5077173;28;20040;-63
2023/03/31 10:23:31;;;;;;;1.88;0.70;;;11.10;99.90;;;;;;5076729;28;20044;-69
2023/03/31 10:25:58;;;;;;;2.50;1.00;;;11.60;99.90;;;;;;5077177;28;20044;-63
2023/03/31 10:28:24;;;;;;;0.63;0.50;;;11.20;99.90;;;;;;5076623;28;20040;-63
2023/03/31 10:31:01;;;;;;;1.40;0.82;;;11.30;99.90;;;;;;5076890;28;20063;-62
2023/03/31 10:33:30;;;;;;;2.03;0.70;;;11.20;99.90;;;;;;5076913;28;20051;-62
2023/03/31 10:36:01;;;;;;;0.57;0.57;;;11.30;99.90;;;;;;5076732;28;20487;-62
2023/03/31 10:38:33;;;;;;;2.30;1.10;;;11.40;99.90;;;;;;5076779;28;20040;-62
2023/03/31 10:41:00;;;;;;;2.22;0.90;;;11.50;99.90;;;;;;5076664;28;20076;-63
2023/03/31 10:43:40;;;;;;;2.03;0.85;;;11.60;99.90;;;;;;5058482;28;20075;-62
2023/03/31 10:46:05;;;;;;;1.13;1.05;;;11.60;99.90;;;;;;5058665;28;20436;-65
2023/03/31 10:48:40;;;;;;;3.63;0.90;;;11.70;99.90;;;;;;5076163;28;20087;-62
2023/03/31 10:51:24;;;;;;;1.00;0.82;;;11.70;99.90;;;;;;5076333;28;20400;-62
2023/03/31 10:53:55;;;;;;;1.27;0.70;;;11.70;99.90;;;;;;5076093;28;20036;-65
2023/03/31 10:56:45;;;;;;;1.80;0.80;;;13.00;99.90;;;;;;5076338;28;20385;-63
2023/03/31 10:59:50;;;;;;;1.77;1.10;;;12.00;99.90;;;;;;5076031;28;20075;-65
2023/03/31 11:02:27;;;;;;;4.22;0.90;;;12.20;99.90;;;;;;5076216;28;20361;-65
2023/03/31 11:05:33;;;;;;;0.80;0.70;;;12.40;99.90;;;;;;5057886;28;20095;-63
2023/03/31 11:08:17;;;;;;;1.38;0.90;;;12.60;99.90;;;;;;5076118;28;20044;-62
2023/03/31 11:11:24;;;;;;;1.65;1.23;;;12.80;99.90;;;;;;5075994;28;20036;-63
2023/03/31 11:14:07;;;;;;;2.92;1.05;;;12.90;99.90;;;;;;5020709;28;20094;-63
2023/03/31 11:16:59;;;;;;;3.67;0.73;;;13.10;99.90;;;;;;5075896;28;20040;-62
2023/03/31 11:19:38;;;;;;;0.98;0.80;;;13.30;99.90;;;;;;5075616;28;20047;-62
2023/03/31 11:22:04;;;;;;;1.92;1.08;;;13.10;99.90;;;;;;5075618;28;20075;-62
2023/03/31 11:24:41;;;;;;;2.05;1.10;;;13.20;99.90;;;;;;5075713;28;20033;-62
2023/03/31 11:27:16;;;;;;;1.20;0.93;;;12.90;99.90;;;;;;5074906;28;20119;-62
2023/03/31 11:29:53;;;;;;;1.85;0.77;;;12.70;99.90;;;;;;5075691;28;20128;-62
2023/03/31 11:32:49;;;;;;;1.60;0.80;;;12.60;99.90;;;;;;5075718;28;20396;-62
2023/03/31 11:35:21;;;;;;;1.60;0.75;;;12.50;99.90;;;;;;5075573;28;20399;-62
2023/03/31 11:38:10;;;;;;;1.30;0.70;;;12.30;99.90;;;;;;5075639;28;20033;-62
2023/03/31 11:41:01;;;;;;;1.63;0.80;;;12.20;99.90;;;;;;5075494;28;20036;-62
2023/03/31 11:43:42;;;;;;;2.40;1.20;;;12.10;99.90;;;;;;5075585;28;20048;-62
2023/03/31 11:46:29;;;;;;;4.00;1.23;;;12.00;99.90;;;;;;5075525;28;20044;-62
2023/03/31 11:49:22;;;;;;;2.38;0.82;;;11.90;99.90;;;;;;5075129;28;20045;-62
2023/03/31 11:51:52;;;;;;;2.78;0.82;;;12.00;99.90;;;;;;5075064;28;20040;-62
2023/03/31 11:54:41;;;;;;;0.75;0.60;;;12.60;99.90;;;;;;5075316;28;20044;-65
2023/03/31 11:57:22;;;;;;;1.05;0.93;;;12.00;99.90;;;;;;5075238;28;20036;-63
2023/03/31 11:59:53;;;;;;;;;;;12.20;99.90;;;;;;5075433;28;20048;-63
2023/03/31 12:02:35;;;;;;;6.10;1.17;;;12.30;99.90;;;;;;5075218;28;19928;-62
2023/03/31 12:05:03;;;;;;;1.83;1.15;;;12.40;99.90;;;;;;5056712;28;20048;-63
2023/03/31 12:07:40;;;;;;;2.40;0.88;;;12.50;99.90;;;;;;5074801;28;20044;-63
2023/03/31 12:10:30;;;;;;;2.25;0.70;;;12.50;99.90;;;;;;5074728;28;20036;-63
2023/03/31 12:13:17;;;;;;;1.67;0.77;;;12.70;99.90;;;;;;5075033;28;20087;-63
2023/03/31 12:15:51;;;;;;;2.15;0.90;;;12.80;99.90;;;;;;5074722;28;20051;-63
2023/03/31 12:18:24;;;;;;;2.13;0.90;;;12.80;99.90;;;;;;5074889;28;20407;-63
2023/03/31 12:20:56;;;;;;;2.13;0.90;;;12.90;99.90;;;;;;5074794;28;20044;-62
2023/03/31 12:23:27;;;;;;;2.70;0.93;;;13.60;99.90;;;;;;5056613;28;20451;-62
2023/03/31 12:26:21;;;;;;;6.75;1.02;;;13.00;99.90;;;;;;5074463;28;20083;-62
2023/03/31 12:28:54;;;;;;;4.18;0.95;;;12.90;99.90;;;;;;5074346;28;20037;-62
2023/03/31 12:31:22;;;;;;;1.75;0.98;;;12.90;99.90;;;;;;5074593;28;20452;-62
2023/03/31 12:33:55;;;;;;;3.90;1.15;;;13.00;99.90;;;;;;5074545;28;20062;-62
2023/03/31 12:36:50;;;;;;;1.55;0.85;;;13.00;99.90;;;;;;5074450;28;20462;-62
2023/03/31 12:39:18;;;;;;;2.50;1.30;;;13.00;99.90;;;;;;5028678;28;20088;-62
2023/03/31 12:42:14;;;;;;;5.28;1.75;;;13.60;99.90;;;;;;5074253;28;20487;-62
2023/03/31 12:44:49;;;;;;;3.15;1.27;;;13.10;99.90;;;;;;5056390;28;20036;-62
2023/03/31 12:47:39;;;;;;;5.55;1.15;;;13.10;99.90;;;;;;5056410;28;20127;-62
2023/03/31 12:50:07;;;;;;;4.38;1.60;;;13.10;99.90;;;;;;5058772;28;20039;-62
2023/03/31 12:53:05;;;;;;;3.15;1.20;;;13.10;99.90;;;;;;5074178;28;20086;-62
2023/03/31 12:55:37;;;;;;;6.18;1.75;;;13.20;99.90;;;;;;5022557;28;20055;-62
2023/03/31 12:58:21;;;;;;;3.75;1.05;;;13.40;99.90;;;;;;5055854;28;20040;-62
2023/03/31 13:01:18;;;;;;;3.28;1.23;;;13.50;99.90;;;;;;5073930;28;20047;-63
2023/03/31 13:03:48;;;;;;;3.15;1.27;;;13.50;99.90;;;;;;5073917;28;20442;-62
2023/03/31 13:06:29;;;;;;;3.63;1.35;;;13.50;99.90;;;;;;5055612;28;20435;-62
2023/03/31 13:09:04;;;;;;;2.55;1.15;;;13.50;99.90;;;;;;5073776;28;20038;-62
2023/03/31 13:11:35;;;;;;;7.15;1.40;;;13.60;99.90;;;;;;5073823;28;20036;-62
2023/03/31 13:14:29;;;;;;;2.80;0.93;;;13.80;99.90;;;;;;5073717;28;20048;-62
2023/03/31 13:17:11;;;;;;;2.85;1.42;;;13.70;99.90;;;;;;5073606;28;20048;-62